sensor_id;sensor_type;location;lat;lon;timestamp;P1;durP1;ratioP1;P2;durP2;ratioP2
41881;SDS011;27562;47.524;12.404;2024-02-23T00:00:09;2.22;;;0.60;;
41881;SDS011;27562;47.524;12.404;2024-02-23T00:02:37;0.80;;;0.50;;
41881;SDS011;27562;47.524;12.404;2024-02-23T00:05:02;5.63;;;2.85;;
41881;SDS011;27562;47.524;12.404;2024-02-23T00:07:29;6.68;;;3.10;;
41881;SDS011;27562;47.524;12.404;2024-02-23T00:09:54;6.05;;;2.92;;
41881;SDS011;27562;47.524;12.404;2024-02-23T00:12:20;2.85;;;1.50;;
41881;SDS011;27562;47.524;12.404;2024-02-23T00:14:46;1.73;;;0.82;;
41881;SDS011;27562;47.524;12.404;2024-02-23T00:17:12;1.52;;;0.80;;
41881;SDS011;27562;47.524;12.404;2024-02-23T00:19:38;1.10;;;0.50;;
41881;SDS011;27562;47.524;12.404;2024-02-23T00:22:03;0.70;;;0.40;;
41881;SDS011;27562;47.524;12.404;2024-02-23T00:24:29;0.40;;;0.30;;
41881;SDS011;27562;47.524;12.404;2024-02-23T00:26:55;0.17;;;0.17;;
41881;SDS011;27562;47.524;12.404;2024-02-23T00:29:20;0.38;;;0.30;;
41881;SDS011;27562;47.524;12.404;2024-02-23T00:31:47;0.73;;;0.40;;
41881;SDS011;27562;47.524;12.404;2024-02-23T00:34:12;1.77;;;0.40;;
41881;SDS011;27562;47.524;12.404;2024-02-23T00:36:39;2.17;;;0.60;;
41881;SDS011;27562;47.524;12.404;2024-02-23T00:39:06;2.83;;;0.60;;
41881;SDS011;27562;47.524;12.404;2024-02-23T00:41:32;1.33;;;0.40;;
41881;SDS011;27562;47.524;12.404;2024-02-23T00:43:59;0.90;;;0.47;;
41881;SDS011;27562;47.524;12.404;2024-02-23T00:46:24;0.90;;;0.50;;
41881;SDS011;27562;47.524;12.404;2024-02-23T00:48:50;1.42;;;0.70;;
41881;SDS011;27562;47.524;12.404;2024-02-23T00:51:16;0.73;;;0.38;;
41881;SDS011;27562;47.524;12.404;2024-02-23T00:53:41;1.73;;;0.70;;
41881;SDS011;27562;47.524;12.404;2024-02-23T00:56:07;2.08;;;0.60;;
41881;SDS011;27562;47.524;12.404;2024-02-23T00:58:33;0.82;;;0.40;;
41881;SDS011;27562;47.524;12.404;2024-02-23T01:00:59;0.50;;;0.50;;
41881;SDS011;27562;47.524;12.404;2024-02-23T01:03:25;0.20;;;0.20;;
41881;SDS011;27562;47.524;12.404;2024-02-23T01:05:50;0.17;;;0.17;;
41881;SDS011;27562;47.524;12.404;2024-02-23T01:08:16;0.32;;;0.20;;
41881;SDS011;27562;47.524;12.404;2024-02-23T01:10:42;0.10;;;0.10;;
41881;SDS011;27562;47.524;12.404;2024-02-23T01:13:07;0.15;;;0.15;;
41881;SDS011;27562;47.524;12.404;2024-02-23T01:15:33;0.10;;;0.10;;
41881;SDS011;27562;47.524;12.404;2024-02-23T01:17:59;1.27;;;0.25;;
41881;SDS011;27562;47.524;12.404;2024-02-23T01:20:25;0.10;;;0.10;;
41881;SDS011;27562;47.524;12.404;2024-02-23T01:22:50;0.10;;;0.10;;
41881;SDS011;27562;47.524;12.404;2024-02-23T01:25:16;0.10;;;0.10;;
41881;SDS011;27562;47.524;12.404;2024-02-23T01:27:42;0.10;;;0.10;;
41881;SDS011;27562;47.524;12.404;2024-02-23T01:30:09;0.10;;;0.10;;
41881;SDS011;27562;47.524;12.404;2024-02-23T01:32:35;0.10;;;0.10;;
41881;SDS011;27562;47.524;12.404;2024-02-23T01:35:03;2.17;;;0.20;;
41881;SDS011;27562;47.524;12.404;2024-02-23T01:37:30;0.88;;;0.40;;
41881;SDS011;27562;47.524;12.404;2024-02-23T01:39:55;0.10;;;0.10;;
41881;SDS011;27562;47.524;12.404;2024-02-23T01:42:21;0.50;;;0.25;;
41881;SDS011;27562;47.524;12.404;2024-02-23T01:44:48;0.20;;;0.20;;
41881;SDS011;27562;47.524;12.404;2024-02-23T01:47:14;0.10;;;0.10;;
41881;SDS011;27562;47.524;12.404;2024-02-23T01:49:40;0.40;;;0.20;;
41881;SDS011;27562;47.524;12.404;2024-02-23T01:52:07;0.13;;;0.13;;
41881;SDS011;27562;47.524;12.404;2024-02-23T01:54:33;0.28;;;0.13;;
41881;SDS011;27562;47.524;12.404;2024-02-23T01:56:59;1.02;;;0.15;;
41881;SDS011;27562;47.524;12.404;2024-02-23T01:59:26;0.20;;;0.10;;
41881;SDS011;27562;47.524;12.404;2024-02-23T02:01:52;0.10;;;0.10;;
41881;SDS011;27562;47.524;12.404;2024-02-23T02:04:18;0.20;;;0.10;;
41881;SDS011;27562;47.524;12.404;2024-02-23T02:06:45;0.10;;;0.10;;
41881;SDS011;27562;47.524;12.404;2024-02-23T02:09:11;0.22;;;0.17;;
41881;SDS011;27562;47.524;12.404;2024-02-23T02:11:46;0.10;;;0.10;;
41881;SDS011;27562;47.524;12.404;2024-02-23T02:14:16;0.10;;;0.10;;
41881;SDS011;27562;47.524;12.404;2024-02-23T02:16:42;0.38;;;0.10;;
41881;SDS011;27562;47.524;12.404;2024-02-23T02:19:09;0.20;;;0.20;;
41881;SDS011;27562;47.524;12.404;2024-02-23T02:21:35;0.10;;;0.10;;
41881;SDS011;27562;47.524;12.404;2024-02-23T02:24:02;0.10;;;0.10;;
41881;SDS011;27562;47.524;12.404;2024-02-23T02:26:28;0.45;;;0.10;;
41881;SDS011;27562;47.524;12.404;2024-02-23T02:28:54;0.20;;;0.20;;
41881;SDS011;27562;47.524;12.404;2024-02-23T02:31:19;0.52;;;0.15;;
41881;SDS011;27562;47.524;12.404;2024-02-23T02:33:45;0.10;;;0.10;;
41881;SDS011;27562;47.524;12.404;2024-02-23T02:36:10;0.10;;;0.10;;
41881;SDS011;27562;47.524;12.404;2024-02-23T02:38:37;0.20;;;0.20;;
41881;SDS011;27562;47.524;12.404;2024-02-23T02:41:02;0.20;;;0.20;;
41881;SDS011;27562;47.524;12.404;2024-02-23T02:43:28;0.10;;;0.10;;
41881;SDS011;27562;47.524;12.404;2024-02-23T02:45:55;0.10;;;0.10;;
41881;SDS011;27562;47.524;12.404;2024-02-23T02:48:22;0.10;;;0.10;;
41881;SDS011;27562;47.524;12.404;2024-02-23T02:50:48;0.20;;;0.10;;
41881;SDS011;27562;47.524;12.404;2024-02-23T02:53:14;0.10;;;0.10;;
41881;SDS011;27562;47.524;12.404;2024-02-23T02:55:41;0.30;;;0.20;;
41881;SDS011;27562;47.524;12.404;2024-02-23T02:58:08;0.65;;;0.30;;
41881;SDS011;27562;47.524;12.404;2024-02-23T03:00:34;0.43;;;0.30;;
41881;SDS011;27562;47.524;12.404;2024-02-23T03:02:59;0.35;;;0.20;;
41881;SDS011;27562;47.524;12.404;2024-02-23T03:05:25;0.40;;;0.25;;
41881;SDS011;27562;47.524;12.404;2024-02-23T03:07:51;0.10;;;0.10;;
41881;SDS011;27562;47.524;12.404;2024-02-23T03:10:17;0.52;;;0.20;;
41881;SDS011;27562;47.524;12.404;2024-02-23T03:12:42;1.55;;;0.28;;
41881;SDS011;27562;47.524;12.404;2024-02-23T03:15:08;0.10;;;0.10;;
41881;SDS011;27562;47.524;12.404;2024-02-23T03:17:37;0.20;;;0.20;;
41881;SDS011;27562;47.524;12.404;2024-02-23T03:20:03;0.22;;;0.20;;
41881;SDS011;27562;47.524;12.404;2024-02-23T03:22:36;0.60;;;0.38;;
41881;SDS011;27562;47.524;12.404;2024-02-23T03:25:02;0.38;;;0.10;;
41881;SDS011;27562;47.524;12.404;2024-02-23T03:27:38;0.20;;;0.20;;
41881;SDS011;27562;47.524;12.404;2024-02-23T03:30:04;0.22;;;0.20;;
41881;SDS011;27562;47.524;12.404;2024-02-23T03:32:33;0.20;;;0.20;;
41881;SDS011;27562;47.524;12.404;2024-02-23T03:35:05;0.40;;;0.40;;
41881;SDS011;27562;47.524;12.404;2024-02-23T03:37:32;0.45;;;0.20;;
41881;SDS011;27562;47.524;12.404;2024-02-23T03:39:57;0.10;;;0.10;;
41881;SDS011;27562;47.524;12.404;2024-02-23T03:42:24;0.22;;;0.20;;
41881;SDS011;27562;47.524;12.404;2024-02-23T03:44:50;0.20;;;0.20;;
41881;SDS011;27562;47.524;12.404;2024-02-23T03:47:16;0.22;;;0.20;;
41881;SDS011;27562;47.524;12.404;2024-02-23T03:49:42;0.20;;;0.20;;
41881;SDS011;27562;47.524;12.404;2024-02-23T03:52:07;0.20;;;0.20;;
41881;SDS011;27562;47.524;12.404;2024-02-23T03:54:33;0.70;;;0.35;;
41881;SDS011;27562;47.524;12.404;2024-02-23T03:56:59;0.40;;;0.30;;
41881;SDS011;27562;47.524;12.404;2024-02-23T03:59:24;0.30;;;0.20;;
41881;SDS011;27562;47.524;12.404;2024-02-23T04:01:50;0.38;;;0.30;;
41881;SDS011;27562;47.524;12.404;2024-02-23T04:04:16;0.20;;;0.20;;
41881;SDS011;27562;47.524;12.404;2024-02-23T04:06:42;0.10;;;0.10;;
41881;SDS011;27562;47.524;12.404;2024-02-23T04:09:07;0.52;;;0.30;;
41881;SDS011;27562;47.524;12.404;2024-02-23T04:11:33;0.20;;;0.20;;
41881;SDS011;27562;47.524;12.404;2024-02-23T04:13:59;0.32;;;0.30;;
41881;SDS011;27562;47.524;12.404;2024-02-23T04:16:25;1.63;;;0.30;;
41881;SDS011;27562;47.524;12.404;2024-02-23T04:18:52;0.22;;;0.20;;
41881;SDS011;27562;47.524;12.404;2024-02-23T04:21:18;0.65;;;0.20;;
41881;SDS011;27562;47.524;12.404;2024-02-23T04:23:44;0.93;;;0.30;;
41881;SDS011;27562;47.524;12.404;2024-02-23T04:26:10;0.20;;;0.20;;
41881;SDS011;27562;47.524;12.404;2024-02-23T04:28:42;0.30;;;0.20;;
41881;SDS011;27562;47.524;12.404;2024-02-23T04:31:08;0.55;;;0.20;;
41881;SDS011;27562;47.524;12.404;2024-02-23T04:33:35;0.40;;;0.20;;
41881;SDS011;27562;47.524;12.404;2024-02-23T04:36:01;0.63;;;0.20;;
41881;SDS011;27562;47.524;12.404;2024-02-23T04:38:28;0.80;;;0.75;;
41881;SDS011;27562;47.524;12.404;2024-02-23T04:40:55;0.20;;;0.20;;
41881;SDS011;27562;47.524;12.404;2024-02-23T04:43:21;0.32;;;0.20;;
41881;SDS011;27562;47.524;12.404;2024-02-23T04:45:48;1.05;;;0.55;;
41881;SDS011;27562;47.524;12.404;2024-02-23T04:48:13;0.15;;;0.15;;
41881;SDS011;27562;47.524;12.404;2024-02-23T04:50:39;0.20;;;0.20;;
41881;SDS011;27562;47.524;12.404;2024-02-23T04:53:05;0.38;;;0.20;;
41881;SDS011;27562;47.524;12.404;2024-02-23T04:55:30;0.32;;;0.20;;
41881;SDS011;27562;47.524;12.404;2024-02-23T04:57:56;1.48;;;0.43;;
41881;SDS011;27562;47.524;12.404;2024-02-23T05:00:22;1.80;;;1.00;;
41881;SDS011;27562;47.524;12.404;2024-02-23T05:02:48;3.20;;;1.42;;
41881;SDS011;27562;47.524;12.404;2024-02-23T05:05:14;3.22;;;1.52;;
41881;SDS011;27562;47.524;12.404;2024-02-23T05:07:40;1.08;;;0.60;;
41881;SDS011;27562;47.524;12.404;2024-02-23T05:10:06;1.00;;;0.52;;
41881;SDS011;27562;47.524;12.404;2024-02-23T05:12:32;2.15;;;1.70;;
41881;SDS011;27562;47.524;12.404;2024-02-23T05:14:57;0.70;;;0.40;;
41881;SDS011;27562;47.524;12.404;2024-02-23T05:17:23;0.40;;;0.40;;
41881;SDS011;27562;47.524;12.404;2024-02-23T05:19:48;0.60;;;0.35;;
41881;SDS011;27562;47.524;12.404;2024-02-23T05:22:14;1.10;;;0.50;;
41881;SDS011;27562;47.524;12.404;2024-02-23T05:24:40;0.88;;;0.55;;
41881;SDS011;27562;47.524;12.404;2024-02-23T05:27:05;0.93;;;0.60;;
41881;SDS011;27562;47.524;12.404;2024-02-23T05:29:31;0.60;;;0.60;;
41881;SDS011;27562;47.524;12.404;2024-02-23T05:31:57;1.73;;;0.40;;
41881;SDS011;27562;47.524;12.404;2024-02-23T05:34:22;1.77;;;0.80;;
41881;SDS011;27562;47.524;12.404;2024-02-23T05:36:48;0.82;;;0.32;;
41881;SDS011;27562;47.524;12.404;2024-02-23T05:39:15;1.73;;;0.75;;
41881;SDS011;27562;47.524;12.404;2024-02-23T05:41:42;1.85;;;1.00;;
41881;SDS011;27562;47.524;12.404;2024-02-23T05:44:08;1.63;;;1.02;;
41881;SDS011;27562;47.524;12.404;2024-02-23T05:46:34;3.85;;;1.10;;
41881;SDS011;27562;47.524;12.404;2024-02-23T05:49:01;1.65;;;0.93;;
41881;SDS011;27562;47.524;12.404;2024-02-23T05:51:28;2.38;;;1.10;;
41881;SDS011;27562;47.524;12.404;2024-02-23T05:53:57;2.03;;;1.50;;
41881;SDS011;27562;47.524;12.404;2024-02-23T05:56:23;1.50;;;0.98;;
41881;SDS011;27562;47.524;12.404;2024-02-23T05:58:49;1.10;;;0.77;;
41881;SDS011;27562;47.524;12.404;2024-02-23T06:01:16;0.50;;;0.47;;
41881;SDS011;27562;47.524;12.404;2024-02-23T06:03:43;0.30;;;0.30;;
41881;SDS011;27562;47.524;12.404;2024-02-23T06:06:09;8.18;;;5.22;;
41881;SDS011;27562;47.524;12.404;2024-02-23T06:08:35;6.25;;;3.90;;
41881;SDS011;27562;47.524;12.404;2024-02-23T06:11:01;6.35;;;2.80;;
41881;SDS011;27562;47.524;12.404;2024-02-23T06:13:28;1.17;;;0.70;;
41881;SDS011;27562;47.524;12.404;2024-02-23T06:15:55;1.15;;;0.50;;
41881;SDS011;27562;47.524;12.404;2024-02-23T06:18:20;0.88;;;0.40;;
41881;SDS011;27562;47.524;12.404;2024-02-23T06:20:46;0.55;;;0.38;;
41881;SDS011;27562;47.524;12.404;2024-02-23T06:23:13;0.57;;;0.45;;
41881;SDS011;27562;47.524;12.404;2024-02-23T06:25:38;0.30;;;0.30;;
41881;SDS011;27562;47.524;12.404;2024-02-23T06:28:04;2.50;;;0.70;;
41881;SDS011;27562;47.524;12.404;2024-02-23T06:30:31;5.45;;;3.83;;
41881;SDS011;27562;47.524;12.404;2024-02-23T06:32:57;2.92;;;1.80;;
41881;SDS011;27562;47.524;12.404;2024-02-23T06:35:23;1.08;;;0.60;;
41881;SDS011;27562;47.524;12.404;2024-02-23T06:37:48;1.55;;;0.77;;
41881;SDS011;27562;47.524;12.404;2024-02-23T06:40:14;1.15;;;0.80;;
41881;SDS011;27562;47.524;12.404;2024-02-23T06:42:40;2.35;;;0.80;;
41881;SDS011;27562;47.524;12.404;2024-02-23T06:45:05;1.38;;;0.90;;
41881;SDS011;27562;47.524;12.404;2024-02-23T06:47:32;1.83;;;0.80;;
41881;SDS011;27562;47.524;12.404;2024-02-23T06:49:59;1.33;;;0.73;;
41881;SDS011;27562;47.524;12.404;2024-02-23T06:52:25;7.32;;;3.78;;
41881;SDS011;27562;47.524;12.404;2024-02-23T06:54:51;5.13;;;2.97;;
41881;SDS011;27562;47.524;12.404;2024-02-23T06:57:17;2.28;;;1.30;;
41881;SDS011;27562;47.524;12.404;2024-02-23T06:59:43;2.05;;;1.48;;
41881;SDS011;27562;47.524;12.404;2024-02-23T07:02:08;1.88;;;1.30;;
41881;SDS011;27562;47.524;12.404;2024-02-23T07:04:34;1.35;;;0.70;;
41881;SDS011;27562;47.524;12.404;2024-02-23T07:07:00;2.47;;;1.30;;
41881;SDS011;27562;47.524;12.404;2024-02-23T07:09:32;1.65;;;0.80;;
41881;SDS011;27562;47.524;12.404;2024-02-23T07:11:58;1.70;;;0.90;;
41881;SDS011;27562;47.524;12.404;2024-02-23T07:14:24;1.65;;;0.93;;
41881;SDS011;27562;47.524;12.404;2024-02-23T07:16:49;1.95;;;1.20;;
41881;SDS011;27562;47.524;12.404;2024-02-23T07:19:16;3.17;;;1.52;;
41881;SDS011;27562;47.524;12.404;2024-02-23T07:21:42;2.35;;;0.88;;
41881;SDS011;27562;47.524;12.404;2024-02-23T07:24:08;2.30;;;0.80;;
41881;SDS011;27562;47.524;12.404;2024-02-23T07:26:34;2.03;;;1.20;;
41881;SDS011;27562;47.524;12.404;2024-02-23T07:28:59;6.18;;;2.40;;
41881;SDS011;27562;47.524;12.404;2024-02-23T07:31:25;2.38;;;0.65;;
41881;SDS011;27562;47.524;12.404;2024-02-23T07:33:51;3.15;;;1.10;;
41881;SDS011;27562;47.524;12.404;2024-02-23T07:36:17;1.75;;;0.65;;
41881;SDS011;27562;47.524;12.404;2024-02-23T07:38:43;0.50;;;0.40;;
41881;SDS011;27562;47.524;12.404;2024-02-23T07:41:09;2.22;;;1.10;;
41881;SDS011;27562;47.524;12.404;2024-02-23T07:43:36;3.80;;;2.03;;
41881;SDS011;27562;47.524;12.404;2024-02-23T07:46:02;3.78;;;1.70;;
41881;SDS011;27562;47.524;12.404;2024-02-23T07:48:28;0.30;;;0.30;;
41881;SDS011;27562;47.524;12.404;2024-02-23T07:50:54;0.50;;;0.30;;
41881;SDS011;27562;47.524;12.404;2024-02-23T07:53:20;0.45;;;0.40;;
41881;SDS011;27562;47.524;12.404;2024-02-23T07:55:45;0.20;;;0.20;;
41881;SDS011;27562;47.524;12.404;2024-02-23T07:58:11;0.90;;;0.50;;
41881;SDS011;27562;47.524;12.404;2024-02-23T08:00:37;2.20;;;1.10;;
41881;SDS011;27562;47.524;12.404;2024-02-23T08:03:03;2.60;;;1.60;;
41881;SDS011;27562;47.524;12.404;2024-02-23T08:05:29;5.75;;;2.08;;
41881;SDS011;27562;47.524;12.404;2024-02-23T08:07:55;8.90;;;2.30;;
41881;SDS011;27562;47.524;12.404;2024-02-23T08:10:21;6.88;;;2.20;;
41881;SDS011;27562;47.524;12.404;2024-02-23T08:12:47;7.32;;;2.60;;
41881;SDS011;27562;47.524;12.404;2024-02-23T08:15:12;3.50;;;0.93;;
41881;SDS011;27562;47.524;12.404;2024-02-23T08:17:38;2.33;;;1.15;;
41881;SDS011;27562;47.524;12.404;2024-02-23T08:20:04;2.75;;;1.42;;
41881;SDS011;27562;47.524;12.404;2024-02-23T08:22:30;3.95;;;1.25;;
41881;SDS011;27562;47.524;12.404;2024-02-23T08:24:56;2.50;;;1.80;;
41881;SDS011;27562;47.524;12.404;2024-02-23T08:27:21;2.00;;;0.60;;
41881;SDS011;27562;47.524;12.404;2024-02-23T08:29:47;1.00;;;0.60;;
41881;SDS011;27562;47.524;12.404;2024-02-23T08:32:13;1.40;;;0.88;;
41881;SDS011;27562;47.524;12.404;2024-02-23T08:34:39;1.88;;;0.85;;
41881;SDS011;27562;47.524;12.404;2024-02-23T08:37:05;1.63;;;0.40;;
41881;SDS011;27562;47.524;12.404;2024-02-23T08:39:30;0.50;;;0.45;;
41881;SDS011;27562;47.524;12.404;2024-02-23T08:41:56;3.55;;;1.50;;
41881;SDS011;27562;47.524;12.404;2024-02-23T08:44:22;1.25;;;0.70;;
41881;SDS011;27562;47.524;12.404;2024-02-23T08:46:48;2.17;;;0.80;;
41881;SDS011;27562;47.524;12.404;2024-02-23T08:49:13;2.03;;;1.10;;
41881;SDS011;27562;47.524;12.404;2024-02-23T08:51:39;4.57;;;1.40;;
41881;SDS011;27562;47.524;12.404;2024-02-23T08:54:05;4.70;;;1.17;;
41881;SDS011;27562;47.524;12.404;2024-02-23T08:56:36;3.10;;;1.10;;
41881;SDS011;27562;47.524;12.404;2024-02-23T08:59:07;2.63;;;1.27;;
41881;SDS011;27562;47.524;12.404;2024-02-23T09:01:34;1.63;;;0.70;;
41881;SDS011;27562;47.524;12.404;2024-02-23T09:04:00;2.15;;;0.98;;
41881;SDS011;27562;47.524;12.404;2024-02-23T09:06:26;1.10;;;0.52;;
41881;SDS011;27562;47.524;12.404;2024-02-23T09:08:52;3.08;;;1.60;;
41881;SDS011;27562;47.524;12.404;2024-02-23T09:11:17;1.50;;;0.73;;
41881;SDS011;27562;47.524;12.404;2024-02-23T09:13:43;2.05;;;0.70;;
41881;SDS011;27562;47.524;12.404;2024-02-23T09:16:08;0.70;;;0.50;;
41881;SDS011;27562;47.524;12.404;2024-02-23T09:18:34;2.25;;;1.45;;
41881;SDS011;27562;47.524;12.404;2024-02-23T09:21:00;0.93;;;0.50;;
41881;SDS011;27562;47.524;12.404;2024-02-23T09:23:26;1.40;;;0.60;;
41881;SDS011;27562;47.524;12.404;2024-02-23T09:25:52;0.85;;;0.60;;
41881;SDS011;27562;47.524;12.404;2024-02-23T09:28:17;4.38;;;0.40;;
41881;SDS011;27562;47.524;12.404;2024-02-23T09:30:43;0.40;;;0.40;;
41881;SDS011;27562;47.524;12.404;2024-02-23T09:33:09;0.60;;;0.50;;
41881;SDS011;27562;47.524;12.404;2024-02-23T09:35:34;0.50;;;0.40;;
41881;SDS011;27562;47.524;12.404;2024-02-23T09:38:00;0.38;;;0.38;;
41881;SDS011;27562;47.524;12.404;2024-02-23T09:40:26;0.47;;;0.43;;
41881;SDS011;27562;47.524;12.404;2024-02-23T09:42:55;0.40;;;0.40;;
41881;SDS011;27562;47.524;12.404;2024-02-23T09:45:22;0.20;;;0.20;;
41881;SDS011;27562;47.524;12.404;2024-02-23T09:47:53;0.20;;;0.20;;
41881;SDS011;27562;47.524;12.404;2024-02-23T09:50:20;0.20;;;0.20;;
41881;SDS011;27562;47.524;12.404;2024-02-23T09:52:50;2.77;;;0.63;;
41881;SDS011;27562;47.524;12.404;2024-02-23T09:55:16;0.47;;;0.35;;
41881;SDS011;27562;47.524;12.404;2024-02-23T09:57:44;0.75;;;0.40;;
41881;SDS011;27562;47.524;12.404;2024-02-23T10:00:11;0.80;;;0.40;;
41881;SDS011;27562;47.524;12.404;2024-02-23T10:02:37;0.38;;;0.30;;
41881;SDS011;27562;47.524;12.404;2024-02-23T10:05:05;0.32;;;0.32;;
41881;SDS011;27562;47.524;12.404;2024-02-23T10:07:33;0.32;;;0.30;;
41881;SDS011;27562;47.524;12.404;2024-02-23T10:09:58;0.50;;;0.45;;
41881;SDS011;27562;47.524;12.404;2024-02-23T10:12:24;0.50;;;0.30;;
41881;SDS011;27562;47.524;12.404;2024-02-23T10:14:50;0.20;;;0.20;;
41881;SDS011;27562;47.524;12.404;2024-02-23T10:17:16;1.20;;;0.70;;
41881;SDS011;27562;47.524;12.404;2024-02-23T10:19:43;0.70;;;0.50;;
41881;SDS011;27562;47.524;12.404;2024-02-23T10:22:10;1.52;;;1.08;;
41881;SDS011;27562;47.524;12.404;2024-02-23T10:24:36;2.72;;;1.90;;
41881;SDS011;27562;47.524;12.404;2024-02-23T10:27:02;0.90;;;0.45;;
41881;SDS011;27562;47.524;12.404;2024-02-23T10:29:28;1.33;;;0.60;;
41881;SDS011;27562;47.524;12.404;2024-02-23T10:31:54;0.68;;;0.50;;
41881;SDS011;27562;47.524;12.404;2024-02-23T10:34:22;0.95;;;0.40;;
41881;SDS011;27562;47.524;12.404;2024-02-23T10:36:49;1.20;;;0.50;;
41881;SDS011;27562;47.524;12.404;2024-02-23T10:39:17;0.70;;;0.30;;
41881;SDS011;27562;47.524;12.404;2024-02-23T10:41:51;0.30;;;0.30;;
41881;SDS011;27562;47.524;12.404;2024-02-23T10:44:25;0.75;;;0.60;;
41881;SDS011;27562;47.524;12.404;2024-02-23T10:46:53;4.22;;;2.50;;
41881;SDS011;27562;47.524;12.404;2024-02-23T10:49:20;1.25;;;0.90;;
41881;SDS011;27562;47.524;12.404;2024-02-23T10:51:52;1.60;;;0.80;;
41881;SDS011;27562;47.524;12.404;2024-02-23T10:54:19;3.38;;;1.48;;
41881;SDS011;27562;47.524;12.404;2024-02-23T10:56:46;2.08;;;1.20;;
41881;SDS011;27562;47.524;12.404;2024-02-23T10:59:13;1.77;;;1.00;;
41881;SDS011;27562;47.524;12.404;2024-02-23T11:01:43;1.60;;;0.98;;
41881;SDS011;27562;47.524;12.404;2024-02-23T11:04:14;2.08;;;1.30;;
41881;SDS011;27562;47.524;12.404;2024-02-23T11:06:42;1.55;;;0.85;;
41881;SDS011;27562;47.524;12.404;2024-02-23T11:09:07;1.63;;;0.82;;
41881;SDS011;27562;47.524;12.404;2024-02-23T11:11:38;3.10;;;1.27;;
41881;SDS011;27562;47.524;12.404;2024-02-23T11:14:07;3.85;;;1.45;;
41881;SDS011;27562;47.524;12.404;2024-02-23T11:16:38;2.88;;;1.40;;
41881;SDS011;27562;47.524;12.404;2024-02-23T11:19:08;6.82;;;2.33;;
41881;SDS011;27562;47.524;12.404;2024-02-23T11:21:37;6.07;;;1.45;;
41881;SDS011;27562;47.524;12.404;2024-02-23T11:24:04;9.48;;;3.40;;
41881;SDS011;27562;47.524;12.404;2024-02-23T11:26:30;15.38;;;7.85;;
41881;SDS011;27562;47.524;12.404;2024-02-23T11:28:59;8.48;;;4.88;;
41881;SDS011;27562;47.524;12.404;2024-02-23T11:31:34;8.68;;;5.15;;
41881;SDS011;27562;47.524;12.404;2024-02-23T11:34:00;5.15;;;3.58;;
41881;SDS011;27562;47.524;12.404;2024-02-23T11:36:29;6.20;;;5.15;;
41881;SDS011;27562;47.524;12.404;2024-02-23T11:38:57;2.97;;;1.30;;
41881;SDS011;27562;47.524;12.404;2024-02-23T11:41:25;2.88;;;1.55;;
41881;SDS011;27562;47.524;12.404;2024-02-23T11:43:52;3.15;;;1.35;;
41881;SDS011;27562;47.524;12.404;2024-02-23T11:46:18;2.97;;;1.70;;
41881;SDS011;27562;47.524;12.404;2024-02-23T11:48:45;3.20;;;1.38;;
41881;SDS011;27562;47.524;12.404;2024-02-23T11:51:14;3.58;;;2.17;;
41881;SDS011;27562;47.524;12.404;2024-02-23T11:53:40;2.28;;;1.75;;
41881;SDS011;27562;47.524;12.404;2024-02-23T11:56:07;3.28;;;1.48;;
41881;SDS011;27562;47.524;12.404;2024-02-23T11:58:33;1.55;;;1.00;;
41881;SDS011;27562;47.524;12.404;2024-02-23T12:00:59;1.70;;;0.80;;
41881;SDS011;27562;47.524;12.404;2024-02-23T12:03:27;2.22;;;1.35;;
41881;SDS011;27562;47.524;12.404;2024-02-23T12:05:56;1.98;;;1.15;;
41881;SDS011;27562;47.524;12.404;2024-02-23T12:08:23;2.15;;;1.02;;
41881;SDS011;27562;47.524;12.404;2024-02-23T12:10:53;3.20;;;1.10;;
41881;SDS011;27562;47.524;12.404;2024-02-23T12:13:19;3.50;;;2.00;;
41881;SDS011;27562;47.524;12.404;2024-02-23T12:15:45;4.88;;;2.95;;
41881;SDS011;27562;47.524;12.404;2024-02-23T12:18:12;4.10;;;2.20;;
41881;SDS011;27562;47.524;12.404;2024-02-23T12:20:39;3.70;;;2.42;;
41881;SDS011;27562;47.524;12.404;2024-02-23T12:23:05;2.78;;;1.75;;
41881;SDS011;27562;47.524;12.404;2024-02-23T12:25:33;3.10;;;1.90;;
41881;SDS011;27562;47.524;12.404;2024-02-23T12:27:58;3.40;;;2.35;;
41881;SDS011;27562;47.524;12.404;2024-02-23T12:30:25;6.25;;;3.15;;
41881;SDS011;27562;47.524;12.404;2024-02-23T12:33:02;6.35;;;3.53;;
41881;SDS011;27562;47.524;12.404;2024-02-23T12:35:29;5.10;;;3.30;;
41881;SDS011;27562;47.524;12.404;2024-02-23T12:37:55;3.53;;;1.80;;
41881;SDS011;27562;47.524;12.404;2024-02-23T12:40:21;2.47;;;1.75;;
41881;SDS011;27562;47.524;12.404;2024-02-23T12:42:46;2.72;;;1.90;;
41881;SDS011;27562;47.524;12.404;2024-02-23T12:45:13;2.67;;;2.10;;
41881;SDS011;27562;47.524;12.404;2024-02-23T12:47:39;3.28;;;2.20;;
41881;SDS011;27562;47.524;12.404;2024-02-23T12:50:05;3.72;;;1.95;;
41881;SDS011;27562;47.524;12.404;2024-02-23T12:52:33;3.70;;;2.25;;
41881;SDS011;27562;47.524;12.404;2024-02-23T12:54:59;3.92;;;2.45;;
41881;SDS011;27562;47.524;12.404;2024-02-23T12:57:24;3.17;;;2.13;;
41881;SDS011;27562;47.524;12.404;2024-02-23T12:59:50;3.20;;;1.80;;
41881;SDS011;27562;47.524;12.404;2024-02-23T13:02:16;3.67;;;1.85;;
41881;SDS011;27562;47.524;12.404;2024-02-23T13:04:42;5.10;;;2.33;;
41881;SDS011;27562;47.524;12.404;2024-02-23T13:09:39;9.50;;;4.82;;
41881;SDS011;27562;47.524;12.404;2024-02-23T13:12:05;9.60;;;5.85;;
41881;SDS011;27562;47.524;12.404;2024-02-23T13:14:30;7.75;;;5.05;;
41881;SDS011;27562;47.524;12.404;2024-02-23T13:16:56;4.10;;;2.88;;
41881;SDS011;27562;47.524;12.404;2024-02-23T13:19:22;2.85;;;1.73;;
41881;SDS011;27562;47.524;12.404;2024-02-23T13:21:47;2.22;;;1.20;;
41881;SDS011;27562;47.524;12.404;2024-02-23T13:24:13;2.38;;;1.45;;
41881;SDS011;27562;47.524;12.404;2024-02-23T13:26:38;2.08;;;1.30;;
41881;SDS011;27562;47.524;12.404;2024-02-23T13:29:04;1.40;;;1.00;;
41881;SDS011;27562;47.524;12.404;2024-02-23T13:31:30;1.70;;;0.90;;
41881;SDS011;27562;47.524;12.404;2024-02-23T13:33:56;1.02;;;0.73;;
41881;SDS011;27562;47.524;12.404;2024-02-23T13:36:21;1.27;;;0.93;;
41881;SDS011;27562;47.524;12.404;2024-02-23T13:38:47;2.13;;;1.45;;
41881;SDS011;27562;47.524;12.404;2024-02-23T13:41:12;3.63;;;2.53;;
41881;SDS011;27562;47.524;12.404;2024-02-23T13:43:39;4.93;;;3.10;;
41881;SDS011;27562;47.524;12.404;2024-02-23T13:46:04;7.10;;;4.32;;
41881;SDS011;27562;47.524;12.404;2024-02-23T13:48:30;8.15;;;4.55;;
41881;SDS011;27562;47.524;12.404;2024-02-23T13:50:56;5.55;;;3.58;;
41881;SDS011;27562;47.524;12.404;2024-02-23T13:53:22;4.88;;;2.42;;
41881;SDS011;27562;47.524;12.404;2024-02-23T13:55:47;5.45;;;2.47;;
41881;SDS011;27562;47.524;12.404;2024-02-23T13:58:14;5.90;;;3.15;;
41881;SDS011;27562;47.524;12.404;2024-02-23T14:00:39;8.20;;;4.53;;
41881;SDS011;27562;47.524;12.404;2024-02-23T14:03:05;7.47;;;4.00;;
41881;SDS011;27562;47.524;12.404;2024-02-23T14:05:31;9.63;;;5.65;;
41881;SDS011;27562;47.524;12.404;2024-02-23T14:07:57;7.75;;;5.15;;
41881;SDS011;27562;47.524;12.404;2024-02-23T14:10:22;10.32;;;5.68;;
41881;SDS011;27562;47.524;12.404;2024-02-23T14:12:48;13.05;;;6.80;;
41881;SDS011;27562;47.524;12.404;2024-02-23T14:15:15;14.68;;;7.03;;
41881;SDS011;27562;47.524;12.404;2024-02-23T14:17:42;14.18;;;8.40;;
41881;SDS011;27562;47.524;12.404;2024-02-23T14:20:08;14.32;;;8.20;;
41881;SDS011;27562;47.524;12.404;2024-02-23T14:22:34;14.40;;;7.93;;
41881;SDS011;27562;47.524;12.404;2024-02-23T14:25:00;10.45;;;6.30;;
41881;SDS011;27562;47.524;12.404;2024-02-23T14:27:25;10.32;;;5.95;;
41881;SDS011;27562;47.524;12.404;2024-02-23T14:29:53;9.13;;;5.60;;